sensor_id;sensor_type;location;lat;lon;timestamp;temperature;humidity
28835;DHT22;15969;51.536;11.884;2022-10-16T00:01:10;16.10;99.90
28835;DHT22;15969;51.536;11.884;2022-10-16T00:03:42;16.20;99.90
28835;DHT22;15969;51.536;11.884;2022-10-16T00:06:08;16.20;99.90
28835;DHT22;15969;51.536;11.884;2022-10-16T00:08:35;16.30;99.90
28835;DHT22;15969;51.536;11.884;2022-10-16T00:11:04;16.30;99.90
28835;DHT22;15969;51.536;11.884;2022-10-16T00:13:32;16.40;99.90
28835;DHT22;15969;51.536;11.884;2022-10-16T00:15:59;16.40;99.90
28835;DHT22;15969;51.536;11.884;2022-10-16T00:18:26;16.50;99.90
28835;DHT22;15969;51.536;11.884;2022-10-16T00:20:53;16.50;99.90
28835;DHT22;15969;51.536;11.884;2022-10-16T00:23:20;16.50;99.90
28835;DHT22;15969;51.536;11.884;2022-10-16T00:25:54;16.60;99.90
28835;DHT22;15969;51.536;11.884;2022-10-16T00:28:22;16.60;99.90
28835;DHT22;15969;51.536;11.884;2022-10-16T00:30:48;16.60;99.90
28835;DHT22;15969;51.536;11.884;2022-10-16T00:33:13;16.70;99.90
28835;DHT22;15969;51.536;11.884;2022-10-16T00:35:39;16.60;99.90
28835;DHT22;15969;51.536;11.884;2022-10-16T00:38:05;16.60;99.90
28835;DHT22;15969;51.536;11.884;2022-10-16T00:40:30;16.60;99.90
28835;DHT22;15969;51.536;11.884;2022-10-16T00:42:57;16.60;99.90
28835;DHT22;15969;51.536;11.884;2022-10-16T00:45:23;16.60;99.90
28835;DHT22;15969;51.536;11.884;2022-10-16T00:47:52;16.50;99.90
28835;DHT22;15969;51.536;11.884;2022-10-16T00:50:31;16.50;99.90
28835;DHT22;15969;51.536;11.884;2022-10-16T00:53:00;16.40;99.90
28835;DHT22;15969;51.536;11.884;2022-10-16T00:55:27;16.30;99.90
28835;DHT22;15969;51.536;11.884;2022-10-16T00:57:55;16.20;99.90
28835;DHT22;15969;51.536;11.884;2022-10-16T01:00:24;16.20;99.90
28835;DHT22;15969;51.536;11.884;2022-10-16T01:02:55;16.10;99.90
28835;DHT22;15969;51.536;11.884;2022-10-16T01:05:23;16.00;99.90
28835;DHT22;15969;51.536;11.884;2022-10-16T01:08:49;15.90;99.90
28835;DHT22;15969;51.536;11.884;2022-10-16T01:11:05;15.90;99.90
28835;DHT22;15969;51.536;11.884;2022-10-16T01:13:40;15.80;99.90
28835;DHT22;15969;51.536;11.884;2022-10-16T01:19:09;15.60;99.90
28835;DHT22;15969;51.536;11.884;2022-10-16T01:21:47;15.40;99.90
28835;DHT22;15969;51.536;11.884;2022-10-16T01:24:40;15.30;99.90
28835;DHT22;15969;51.536;11.884;2022-10-16T01:27:19;15.30;99.90
28835;DHT22;15969;51.536;11.884;2022-10-16T01:30:12;15.30;99.90
28835;DHT22;15969;51.536;11.884;2022-10-16T01:32:41;15.20;99.90
28835;DHT22;15969;51.536;11.884;2022-10-16T01:35:37;15.10;99.90
28835;DHT22;15969;51.536;11.884;2022-10-16T01:38:10;15.10;99.90
28835;DHT22;15969;51.536;11.884;2022-10-16T01:40:40;15.00;99.90
28835;DHT22;15969;51.536;11.884;2022-10-16T01:43:20;15.00;99.90
28835;DHT22;15969;51.536;11.884;2022-10-16T01:45:48;15.00;99.90
28835;DHT22;15969;51.536;11.884;2022-10-16T01:48:18;15.00;99.90
28835;DHT22;15969;51.536;11.884;2022-10-16T01:50:51;15.00;99.90
28835;DHT22;15969;51.536;11.884;2022-10-16T01:53:22;15.00;99.90
28835;DHT22;15969;51.536;11.884;2022-10-16T01:55:49;15.00;99.90
28835;DHT22;15969;51.536;11.884;2022-10-16T01:58:15;14.90;99.90
28835;DHT22;15969;51.536;11.884;2022-10-16T02:00:44;14.90;99.90
28835;DHT22;15969;51.536;11.884;2022-10-16T02:03:12;14.80;99.90
28835;DHT22;15969;51.536;11.884;2022-10-16T02:05:51;14.80;99.90
28835;DHT22;15969;51.536;11.884;2022-10-16T02:08:21;14.80;99.90
28835;DHT22;15969;51.536;11.884;2022-10-16T02:10:48;14.80;99.90
28835;DHT22;15969;51.536;11.884;2022-10-16T02:14:20;14.80;99.90
28835;DHT22;15969;51.536;11.884;2022-10-16T02:16:19;14.80;99.90
28835;DHT22;15969;51.536;11.884;2022-10-16T02:18:44;14.80;99.90
28835;DHT22;15969;51.536;11.884;2022-10-16T02:21:22;14.90;99.90
28835;DHT22;15969;51.536;11.884;2022-10-16T02:26:41;15.00;99.90
28835;DHT22;15969;51.536;11.884;2022-10-16T02:29:14;15.00;99.90
28835;DHT22;15969;51.536;11.884;2022-10-16T02:31:45;15.00;99.90
28835;DHT22;15969;51.536;11.884;2022-10-16T02:34:13;15.00;99.90
28835;DHT22;15969;51.536;11.884;2022-10-16T02:36:40;15.00;99.90
28835;DHT22;15969;51.536;11.884;2022-10-16T02:39:07;15.00;99.90
28835;DHT22;15969;51.536;11.884;2022-10-16T02:41:33;14.90;99.90
28835;DHT22;15969;51.536;11.884;2022-10-16T02:43:59;14.90;99.90
28835;DHT22;15969;51.536;11.884;2022-10-16T02:46:25;15.00;99.90
28835;DHT22;15969;51.536;11.884;2022-10-16T02:48:50;15.00;99.90
28835;DHT22;15969;51.536;11.884;2022-10-16T02:51:16;15.00;99.90
28835;DHT22;15969;51.536;11.884;2022-10-16T02:53:42;14.90;99.90
28835;DHT22;15969;51.536;11.884;2022-10-16T02:56:07;15.00;99.90
28835;DHT22;15969;51.536;11.884;2022-10-16T02:58:33;15.00;99.90
28835;DHT22;15969;51.536;11.884;2022-10-16T03:00:59;15.10;99.90
28835;DHT22;15969;51.536;11.884;2022-10-16T03:03:24;15.10;99.90
28835;DHT22;15969;51.536;11.884;2022-10-16T03:05:50;15.20;99.90
28835;DHT22;15969;51.536;11.884;2022-10-16T03:08:16;15.10;99.90
28835;DHT22;15969;51.536;11.884;2022-10-16T03:10:42;15.20;99.90
28835;DHT22;15969;51.536;11.884;2022-10-16T03:13:08;15.20;99.90
28835;DHT22;15969;51.536;11.884;2022-10-16T03:15:34;15.20;99.90
28835;DHT22;15969;51.536;11.884;2022-10-16T03:18:00;15.20;99.90
28835;DHT22;15969;51.536;11.884;2022-10-16T03:20:26;15.10;99.90
28835;DHT22;15969;51.536;11.884;2022-10-16T03:22:52;15.10;99.90
28835;DHT22;15969;51.536;11.884;2022-10-16T03:25:17;15.10;99.90
28835;DHT22;15969;51.536;11.884;2022-10-16T03:27:43;15.00;99.90
28835;DHT22;15969;51.536;11.884;2022-10-16T03:30:09;15.00;99.90
28835;DHT22;15969;51.536;11.884;2022-10-16T03:32:35;14.90;99.90
28835;DHT22;15969;51.536;11.884;2022-10-16T03:35:01;14.90;99.90
28835;DHT22;15969;51.536;11.884;2022-10-16T03:37:26;14.80;99.90
28835;DHT22;15969;51.536;11.884;2022-10-16T03:39:52;14.80;99.90
28835;DHT22;15969;51.536;11.884;2022-10-16T03:42:18;14.80;99.90
28835;DHT22;15969;51.536;11.884;2022-10-16T03:44:44;14.80;99.90
28835;DHT22;15969;51.536;11.884;2022-10-16T03:47:09;14.80;99.90
28835;DHT22;15969;51.536;11.884;2022-10-16T03:49:35;14.70;99.90
28835;DHT22;15969;51.536;11.884;2022-10-16T03:52:00;14.70;99.90
28835;DHT22;15969;51.536;11.884;2022-10-16T03:54:26;14.50;99.90
28835;DHT22;15969;51.536;11.884;2022-10-16T03:56:52;14.50;99.90
28835;DHT22;15969;51.536;11.884;2022-10-16T03:59:18;14.50;99.90
28835;DHT22;15969;51.536;11.884;2022-10-16T04:01:43;14.50;99.90
28835;DHT22;15969;51.536;11.884;2022-10-16T04:04:09;14.50;99.90
28835;DHT22;15969;51.536;11.884;2022-10-16T04:06:35;14.40;99.90
28835;DHT22;15969;51.536;11.884;2022-10-16T04:09:00;14.40;99.90
28835;DHT22;15969;51.536;11.884;2022-10-16T04:11:26;14.30;99.90
28835;DHT22;15969;51.536;11.884;2022-10-16T04:13:52;14.30;99.90
28835;DHT22;15969;51.536;11.884;2022-10-16T04:16:18;14.20;99.90
28835;DHT22;15969;51.536;11.884;2022-10-16T04:18:44;14.20;99.90
28835;DHT22;15969;51.536;11.884;2022-10-16T04:21:09;14.20;99.90
28835;DHT22;15969;51.536;11.884;2022-10-16T04:23:35;14.20;99.90
28835;DHT22;15969;51.536;11.884;2022-10-16T04:26:01;14.20;99.90
28835;DHT22;15969;51.536;11.884;2022-10-16T04:28:26;14.20;99.90
28835;DHT22;15969;51.536;11.884;2022-10-16T04:30:53;14.10;99.90
28835;DHT22;15969;51.536;11.884;2022-10-16T04:33:18;14.10;99.90
28835;DHT22;15969;51.536;11.884;2022-10-16T04:35:44;14.10;99.90
28835;DHT22;15969;51.536;11.884;2022-10-16T04:38:10;14.10;99.90
28835;DHT22;15969;51.536;11.884;2022-10-16T04:40:35;14.00;99.90
28835;DHT22;15969;51.536;11.884;2022-10-16T04:43:03;14.00;99.90
28835;DHT22;15969;51.536;11.884;2022-10-16T04:45:29;14.00;99.90
28835;DHT22;15969;51.536;11.884;2022-10-16T04:47:58;14.10;99.90
28835;DHT22;15969;51.536;11.884;2022-10-16T04:50:24;14.10;99.90
28835;DHT22;15969;51.536;11.884;2022-10-16T04:52:50;14.10;99.90
28835;DHT22;15969;51.536;11.884;2022-10-16T04:55:16;14.00;99.90
28835;DHT22;15969;51.536;11.884;2022-10-16T04:57:41;14.00;99.90
28835;DHT22;15969;51.536;11.884;2022-10-16T05:00:08;14.00;99.90
28835;DHT22;15969;51.536;11.884;2022-10-16T05:02:34;14.10;99.90
28835;DHT22;15969;51.536;11.884;2022-10-16T05:04:59;14.10;99.90
28835;DHT22;15969;51.536;11.884;2022-10-16T05:07:25;14.00;99.90
28835;DHT22;15969;51.536;11.884;2022-10-16T05:09:51;14.10;99.90
28835;DHT22;15969;51.536;11.884;2022-10-16T05:12:16;14.00;99.90
28835;DHT22;15969;51.536;11.884;2022-10-16T05:14:42;14.00;99.90
28835;DHT22;15969;51.536;11.884;2022-10-16T05:17:08;14.00;99.90
28835;DHT22;15969;51.536;11.884;2022-10-16T05:19:33;14.00;99.90
28835;DHT22;15969;51.536;11.884;2022-10-16T05:21:59;14.00;99.90
28835;DHT22;15969;51.536;11.884;2022-10-16T05:24:25;13.90;99.90
28835;DHT22;15969;51.536;11.884;2022-10-16T05:26:51;13.90;99.90
28835;DHT22;15969;51.536;11.884;2022-10-16T05:29:17;14.00;99.90
28835;DHT22;15969;51.536;11.884;2022-10-16T05:31:42;14.00;99.90
28835;DHT22;15969;51.536;11.884;2022-10-16T05:34:08;14.10;99.90
28835;DHT22;15969;51.536;11.884;2022-10-16T05:36:34;14.10;99.90
28835;DHT22;15969;51.536;11.884;2022-10-16T05:38:59;14.20;99.90
28835;DHT22;15969;51.536;11.884;2022-10-16T05:41:25;14.20;99.90
28835;DHT22;15969;51.536;11.884;2022-10-16T05:43:52;14.30;99.90
28835;DHT22;15969;51.536;11.884;2022-10-16T05:46:18;14.30;99.90
28835;DHT22;15969;51.536;11.884;2022-10-16T05:48:43;14.30;99.90
28835;DHT22;15969;51.536;11.884;2022-10-16T05:51:11;14.40;99.90
28835;DHT22;15969;51.536;11.884;2022-10-16T05:53:38;14.40;99.90
28835;DHT22;15969;51.536;11.884;2022-10-16T05:56:06;14.40;99.90
28835;DHT22;15969;51.536;11.884;2022-10-16T05:58:35;14.40;99.90
28835;DHT22;15969;51.536;11.884;2022-10-16T06:01:07;14.40;99.90
28835;DHT22;15969;51.536;11.884;2022-10-16T06:03:39;14.40;99.90
28835;DHT22;15969;51.536;11.884;2022-10-16T06:06:12;14.40;99.90
28835;DHT22;15969;51.536;11.884;2022-10-16T06:08:40;14.40;99.90
28835;DHT22;15969;51.536;11.884;2022-10-16T06:11:09;14.40;99.90
28835;DHT22;15969;51.536;11.884;2022-10-16T06:13:39;14.50;99.90
28835;DHT22;15969;51.536;11.884;2022-10-16T06:16:08;14.50;99.90
28835;DHT22;15969;51.536;11.884;2022-10-16T06:18:35;14.50;99.90
28835;DHT22;15969;51.536;11.884;2022-10-16T06:21:10;14.60;99.90
28835;DHT22;15969;51.536;11.884;2022-10-16T06:23:37;14.60;99.90
28835;DHT22;15969;51.536;11.884;2022-10-16T06:26:08;14.60;99.90
28835;DHT22;15969;51.536;11.884;2022-10-16T06:28:35;14.60;99.90
28835;DHT22;15969;51.536;11.884;2022-10-16T06:31:03;14.60;99.90
28835;DHT22;15969;51.536;11.884;2022-10-16T06:33:29;14.60;99.90
28835;DHT22;15969;51.536;11.884;2022-10-16T06:36:25;14.60;99.90
28835;DHT22;15969;51.536;11.884;2022-10-16T06:38:51;14.70;99.90
28835;DHT22;15969;51.536;11.884;2022-10-16T06:41:20;14.70;99.90
28835;DHT22;15969;51.536;11.884;2022-10-16T06:43:47;14.70;99.90
28835;DHT22;15969;51.536;11.884;2022-10-16T06:46:15;14.70;99.90
28835;DHT22;15969;51.536;11.884;2022-10-16T06:48:42;14.80;99.90
28835;DHT22;15969;51.536;11.884;2022-10-16T06:51:13;14.80;99.90
28835;DHT22;15969;51.536;11.884;2022-10-16T06:53:43;14.80;99.90
28835;DHT22;15969;51.536;11.884;2022-10-16T06:56:19;14.80;99.90
28835;DHT22;15969;51.536;11.884;2022-10-16T06:58:49;14.80;99.90
28835;DHT22;15969;51.536;11.884;2022-10-16T07:01:16;14.90;99.90
28835;DHT22;15969;51.536;11.884;2022-10-16T07:03:44;15.00;99.90
28835;DHT22;15969;51.536;11.884;2022-10-16T07:06:16;15.00;99.90
28835;DHT22;15969;51.536;11.884;2022-10-16T07:08:43;15.10;99.90
28835;DHT22;15969;51.536;11.884;2022-10-16T07:11:19;15.10;99.90
28835;DHT22;15969;51.536;11.884;2022-10-16T07:13:47;15.10;99.90
28835;DHT22;15969;51.536;11.884;2022-10-16T07:16:19;15.20;99.90
28835;DHT22;15969;51.536;11.884;2022-10-16T07:18:47;15.30;99.90
28835;DHT22;15969;51.536;11.884;2022-10-16T07:21:18;15.40;99.90
28835;DHT22;15969;51.536;11.884;2022-10-16T07:23:55;15.40;99.90
28835;DHT22;15969;51.536;11.884;2022-10-16T07:26:24;15.50;99.90
28835;DHT22;15969;51.536;11.884;2022-10-16T07:28:50;15.50;99.90
28835;DHT22;15969;51.536;11.884;2022-10-16T07:31:17;15.60;99.90
28835;DHT22;15969;51.536;11.884;2022-10-16T07:33:45;15.60;99.90
28835;DHT22;15969;51.536;11.884;2022-10-16T07:36:14;15.70;99.90
28835;DHT22;15969;51.536;11.884;2022-10-16T07:38:40;15.70;99.90
28835;DHT22;15969;51.536;11.884;2022-10-16T07:41:10;15.80;99.90
28835;DHT22;15969;51.536;11.884;2022-10-16T07:43:37;15.80;99.90
28835;DHT22;15969;51.536;11.884;2022-10-16T07:46:03;15.90;99.90
28835;DHT22;15969;51.536;11.884;2022-10-16T07:48:31;16.10;99.90
28835;DHT22;15969;51.536;11.884;2022-10-16T07:50:59;16.20;99.90
28835;DHT22;15969;51.536;11.884;2022-10-16T07:53:29;16.40;99.90
28835;DHT22;15969;51.536;11.884;2022-10-16T07:55:59;16.50;99.90
28835;DHT22;15969;51.536;11.884;2022-10-16T07:58:29;16.60;99.90
28835;DHT22;15969;51.536;11.884;2022-10-16T08:00:56;16.60;99.90
28835;DHT22;15969;51.536;11.884;2022-10-16T08:03:22;16.70;99.90
28835;DHT22;15969;51.536;11.884;2022-10-16T08:05:48;16.70;99.90
28835;DHT22;15969;51.536;11.884;2022-10-16T08:08:16;16.80;99.90
28835;DHT22;15969;51.536;11.884;2022-10-16T08:10:43;16.90;99.90
28835;DHT22;15969;51.536;11.884;2022-10-16T08:13:09;16.90;99.90
28835;DHT22;15969;51.536;11.884;2022-10-16T08:15:34;17.00;99.90
28835;DHT22;15969;51.536;11.884;2022-10-16T08:18:05;17.10;99.90
28835;DHT22;15969;51.536;11.884;2022-10-16T08:20:32;17.20;99.90
28835;DHT22;15969;51.536;11.884;2022-10-16T08:22:59;17.20;99.90
28835;DHT22;15969;51.536;11.884;2022-10-16T08:25:25;17.30;99.90
28835;DHT22;15969;51.536;11.884;2022-10-16T08:27:51;17.40;99.90
28835;DHT22;15969;51.536;11.884;2022-10-16T08:30:18;17.40;99.90
28835;DHT22;15969;51.536;11.884;2022-10-16T08:32:45;17.50;99.90
28835;DHT22;15969;51.536;11.884;2022-10-16T08:35:12;17.50;99.90
28835;DHT22;15969;51.536;11.884;2022-10-16T08:37:38;17.60;99.90
28835;DHT22;15969;51.536;11.884;2022-10-16T08:40:06;17.60;99.90
28835;DHT22;15969;51.536;11.884;2022-10-16T08:48:30;17.80;99.90
28835;DHT22;15969;51.536;11.884;2022-10-16T08:51:22;17.80;99.90
28835;DHT22;15969;51.536;11.884;2022-10-16T08:53:55;17.90;99.90
28835;DHT22;15969;51.536;11.884;2022-10-16T08:56:24;17.90;99.90
28835;DHT22;15969;51.536;11.884;2022-10-16T08:58:51;18.00;99.90
28835;DHT22;15969;51.536;11.884;2022-10-16T09:01:20;18.00;99.90
28835;DHT22;15969;51.536;11.884;2022-10-16T09:10:00;18.20;99.90
28835;DHT22;15969;51.536;11.884;2022-10-16T09:12:51;18.30;99.90
28835;DHT22;15969;51.536;11.884;2022-10-16T09:18:18;18.50;99.90
28835;DHT22;15969;51.536;11.884;2022-10-16T09:20:53;18.60;99.90
28835;DHT22;15969;51.536;11.884;2022-10-16T09:23:44;18.60;99.90
28835;DHT22;15969;51.536;11.884;2022-10-16T09:26:13;18.80;99.90
28835;DHT22;15969;51.536;11.884;2022-10-16T09:28:40;18.90;99.90
28835;DHT22;15969;51.536;11.884;2022-10-16T09:31:11;18.90;99.90
28835;DHT22;15969;51.536;11.884;2022-10-16T09:33:41;19.00;99.90
28835;DHT22;15969;51.536;11.884;2022-10-16T09:36:09;19.00;99.90
28835;DHT22;15969;51.536;11.884;2022-10-16T09:38:36;19.10;99.90
28835;DHT22;15969;51.536;11.884;2022-10-16T09:41:13;19.10;99.90
28835;DHT22;15969;51.536;11.884;2022-10-16T09:43:48;19.20;99.90
28835;DHT22;15969;51.536;11.884;2022-10-16T09:49:00;19.20;99.90
28835;DHT22;15969;51.536;11.884;2022-10-16T09:51:31;19.30;99.90
28835;DHT22;15969;51.536;11.884;2022-10-16T09:56:37;19.50;99.90
28835;DHT22;15969;51.536;11.884;2022-10-16T09:59:14;19.50;99.90
28835;DHT22;15969;51.536;11.884;2022-10-16T10:01:50;19.50;99.90
28835;DHT22;15969;51.536;11.884;2022-10-16T10:04:18;19.60;99.90
28835;DHT22;15969;51.536;11.884;2022-10-16T10:06:46;19.70;99.90
28835;DHT22;15969;51.536;11.884;2022-10-16T10:09:22;19.70;99.90
28835;DHT22;15969;51.536;11.884;2022-10-16T10:12:03;19.80;99.90
28835;DHT22;15969;51.536;11.884;2022-10-16T10:14:55;19.80;99.90
28835;DHT22;15969;51.536;11.884;2022-10-16T10:17:23;19.80;99.90
28835;DHT22;15969;51.536;11.884;2022-10-16T10:36:22;19.80;99.90
28835;DHT22;15969;51.536;11.884;2022-10-16T10:39:01;19.80;99.90
28835;DHT22;15969;51.536;11.884;2022-10-16T10:44:55;19.90;99.90
28835;DHT22;15969;51.536;11.884;2022-10-16T10:48:02;19.90;99.90
28835;DHT22;15969;51.536;11.884;2022-10-16T10:50:59;19.90;99.90
28835;DHT22;15969;51.536;11.884;2022-10-16T10:53:51;19.90;99.90
28835;DHT22;15969;51.536;11.884;2022-10-16T10:57:03;19.90;99.90
28835;DHT22;15969;51.536;11.884;2022-10-16T11:07:49;20.00;99.90
28835;DHT22;15969;51.536;11.884;2022-10-16T11:10:22;20.00;99.90
28835;DHT22;15969;51.536;11.884;2022-10-16T11:12:59;20.10;99.90
28835;DHT22;15969;51.536;11.884;2022-10-16T11:15:36;20.10;99.90
28835;DHT22;15969;51.536;11.884;2022-10-16T11:18:19;20.10;99.90
28835;DHT22;15969;51.536;11.884;2022-10-16T11:20:51;20.10;99.90
28835;DHT22;15969;51.536;11.884;2022-10-16T11:26:27;20.20;99.90
28835;DHT22;15969;51.536;11.884;2022-10-16T11:28:58;20.30;99.90
28835;DHT22;15969;51.536;11.884;2022-10-16T11:34:17;20.30;99.90
28835;DHT22;15969;51.536;11.884;2022-10-16T11:36:56;20.30;99.90
28835;DHT22;15969;51.536;11.884;2022-10-16T11:39:31;20.30;99.90
28835;DHT22;15969;51.536;11.884;2022-10-16T11:42:22;20.30;99.90
28835;DHT22;15969;51.536;11.884;2022-10-16T11:45:02;20.50;99.90
28835;DHT22;15969;51.536;11.884;2022-10-16T11:53:33;20.90;99.90
28835;DHT22;15969;51.536;11.884;2022-10-16T11:56:00;20.90;99.90
28835;DHT22;15969;51.536;11.884;2022-10-16T11:58:54;20.90;99.90
28835;DHT22;15969;51.536;11.884;2022-10-16T12:01:37;20.90;99.90
28835;DHT22;15969;51.536;11.884;2022-10-16T12:07:14;21.10;99.90
28835;DHT22;15969;51.536;11.884;2022-10-16T12:09:41;21.30;99.90
28835;DHT22;15969;51.536;11.884;2022-10-16T12:12:37;21.30;99.90
28835;DHT22;15969;51.536;11.884;2022-10-16T12:15:21;21.30;99.90
28835;DHT22;15969;51.536;11.884;2022-10-16T12:17:52;21.30;99.90
28835;DHT22;15969;51.536;11.884;2022-10-16T12:20:20;21.30;99.90
28835;DHT22;15969;51.536;11.884;2022-10-16T12:23:06;21.30;99.90
28835;DHT22;15969;51.536;11.884;2022-10-16T12:25:37;21.40;99.90
28835;DHT22;15969;51.536;11.884;2022-10-16T12:28:21;21.40;99.90
28835;DHT22;15969;51.536;11.884;2022-10-16T12:30:54;21.40;99.90
28835;DHT22;15969;51.536;11.884;2022-10-16T12:33:29;21.30;99.90
28835;DHT22;15969;51.536;11.884;2022-10-16T12:35:58;21.40;99.90
28835;DHT22;15969;51.536;11.884;2022-10-16T12:38:44;21.30;99.90
28835;DHT22;15969;51.536;11.884;2022-10-16T12:41:12;21.30;99.90
28835;DHT22;15969;51.536;11.884;2022-10-16T12:43:47;21.40;99.90
28835;DHT22;15969;51.536;11.884;2022-10-16T12:48:40;21.60;99.90
28835;DHT22;15969;51.536;11.884;2022-10-16T12:51:21;21.80;99.90
28835;DHT22;15969;51.536;11.884;2022-10-16T12:56:47;22.20;99.90
28835;DHT22;15969;51.536;11.884;2022-10-16T13:05:23;22.00;99.90
28835;DHT22;15969;51.536;11.884;2022-10-16T13:08:24;21.90;99.90
28835;DHT22;15969;51.536;11.884;2022-10-16T13:11:24;21.80;99.90
28835;DHT22;15969;51.536;11.884;2022-10-16T13:17:11;22.00;99.90
28835;DHT22;15969;51.536;11.884;2022-10-16T13:20:18;22.30;99.90
28835;DHT22;15969;51.536;11.884;2022-10-16T13:26:00;22.50;99.90
28835;DHT22;15969;51.536;11.884;2022-10-16T13:28:34;22.70;99.70
28835;DHT22;15969;51.536;11.884;2022-10-16T13:31:01;22.80;98.90
28835;DHT22;15969;51.536;11.884;2022-10-16T13:33:35;22.80;98.40
28835;DHT22;15969;51.536;11.884;2022-10-16T13:36:04;22.80;98.40
28835;DHT22;15969;51.536;11.884;2022-10-16T13:38:32;22.70;98.30
28835;DHT22;15969;51.536;11.884;2022-10-16T13:41:02;22.60;98.30
28835;DHT22;15969;51.536;11.884;2022-10-16T13:43:46;22.60;98.30
28835;DHT22;15969;51.536;11.884;2022-10-16T13:46:22;22.40;98.70
28835;DHT22;15969;51.536;11.884;2022-10-16T13:49:04;22.30;98.80
28835;DHT22;15969;51.536;11.884;2022-10-16T13:51:32;22.20;98.50
28835;DHT22;15969;51.536;11.884;2022-10-16T13:53:58;22.10;98.80
28835;DHT22;15969;51.536;11.884;2022-10-16T13:56:29;22.10;99.10
28835;DHT22;15969;51.536;11.884;2022-10-16T13:59:20;22.10;99.30
28835;DHT22;15969;51.536;11.884;2022-10-16T14:01:54;22.10;99.30
28835;DHT22;15969;51.536;11.884;2022-10-16T14:04:21;22.10;99.30
28835;DHT22;15969;51.536;11.884;2022-10-16T14:06:49;22.10;99.40
28835;DHT22;15969;51.536;11.884;2022-10-16T14:09:27;22.20;99.70
28835;DHT22;15969;51.536;11.884;2022-10-16T14:12:03;22.30;99.50
28835;DHT22;15969;51.536;11.884;2022-10-16T14:14:53;22.40;99.00
28835;DHT22;15969;51.536;11.884;2022-10-16T14:17:28;22.50;98.30
28835;DHT22;15969;51.536;11.884;2022-10-16T14:19:58;22.80;97.80
28835;DHT22;15969;51.536;11.884;2022-10-16T14:22:34;23.10;99.90
28835;DHT22;15969;51.536;11.884;2022-10-16T14:25:18;23.40;96.90
28835;DHT22;15969;51.536;11.884;2022-10-16T14:30:57;25.10;94.10
28835;DHT22;15969;51.536;11.884;2022-10-16T14:33:32;26.00;92.60
28835;DHT22;15969;51.536;11.884;2022-10-16T14:36:05;26.10;91.70
28835;DHT22;15969;51.536;11.884;2022-10-16T14:38:37;25.90;91.20
28835;DHT22;15969;51.536;11.884;2022-10-16T14:43:37;27.10;87.80
28835;DHT22;15969;51.536;11.884;2022-10-16T14:46:17;27.10;87.80
28835;DHT22;15969;51.536;11.884;2022-10-16T14:48:50;27.10;86.00
28835;DHT22;15969;51.536;11.884;2022-10-16T14:51:18;27.00;87.00
28835;DHT22;15969;51.536;11.884;2022-10-16T14:53:44;27.40;86.90
28835;DHT22;15969;51.536;11.884;2022-10-16T14:56:20;28.20;80.80
28835;DHT22;15969;51.536;11.884;2022-10-16T14:58:50;28.20;81.30
28835;DHT22;15969;51.536;11.884;2022-10-16T15:01:16;28.20;80.40
28835;DHT22;15969;51.536;11.884;2022-10-16T15:03:43;28.10;79.50
28835;DHT22;15969;51.536;11.884;2022-10-16T15:06:13;28.30;78.70
28835;DHT22;15969;51.536;11.884;2022-10-16T15:08:40;28.50;77.90
28835;DHT22;15969;51.536;11.884;2022-10-16T15:11:11;28.90;76.40
28835;DHT22;15969;51.536;11.884;2022-10-16T15:13:38;28.90;75.70
28835;DHT22;15969;51.536;11.884;2022-10-16T15:16:04;28.80;75.50
28835;DHT22;15969;51.536;11.884;2022-10-16T15:18:35;28.40;75.30
28835;DHT22;15969;51.536;11.884;2022-10-16T15:21:00;28.00;76.80
28835;DHT22;15969;51.536;11.884;2022-10-16T15:23:26;27.70;77.20
28835;DHT22;15969;51.536;11.884;2022-10-16T15:25:54;27.10;78.40
28835;DHT22;15969;51.536;11.884;2022-10-16T15:28:22;26.60;80.00
28835;DHT22;15969;51.536;11.884;2022-10-16T15:30:53;26.10;81.60
28835;DHT22;15969;51.536;11.884;2022-10-16T15:33:22;25.70;82.50
28835;DHT22;15969;51.536;11.884;2022-10-16T15:35:52;25.20;84.40
28835;DHT22;15969;51.536;11.884;2022-10-16T15:38:19;24.80;85.90
28835;DHT22;15969;51.536;11.884;2022-10-16T15:40:47;24.50;87.50
28835;DHT22;15969;51.536;11.884;2022-10-16T15:43:13;24.30;87.50
28835;DHT22;15969;51.536;11.884;2022-10-16T15:45:39;24.10;89.00
28835;DHT22;15969;51.536;11.884;2022-10-16T15:48:06;23.80;88.60
28835;DHT22;15969;51.536;11.884;2022-10-16T15:50:32;23.70;90.00
28835;DHT22;15969;51.536;11.884;2022-10-16T15:52:58;23.50;90.40
28835;DHT22;15969;51.536;11.884;2022-10-16T15:55:23;23.20;91.10
28835;DHT22;15969;51.536;11.884;2022-10-16T15:57:49;23.10;91.70
28835;DHT22;15969;51.536;11.884;2022-10-16T16:00:18;22.90;92.00
28835;DHT22;15969;51.536;11.884;2022-10-16T16:02:51;22.70;92.50
28835;DHT22;15969;51.536;11.884;2022-10-16T16:05:19;22.60;92.70
28835;DHT22;15969;51.536;11.884;2022-10-16T16:07:45;22.40;92.90
28835;DHT22;15969;51.536;11.884;2022-10-16T16:10:11;22.30;93.30
28835;DHT22;15969;51.536;11.884;2022-10-16T16:12:38;22.00;93.60
28835;DHT22;15969;51.536;11.884;2022-10-16T16:15:05;21.90;94.00
28835;DHT22;15969;51.536;11.884;2022-10-16T16:17:33;21.80;94.30
28835;DHT22;15969;51.536;11.884;2022-10-16T16:19:59;21.50;95.50
28835;DHT22;15969;51.536;11.884;2022-10-16T16:22:25;21.40;95.60
28835;DHT22;15969;51.536;11.884;2022-10-16T16:24:51;21.30;95.80
28835;DHT22;15969;51.536;11.884;2022-10-16T16:27:17;21.00;96.10
28835;DHT22;15969;51.536;11.884;2022-10-16T16:29:45;20.80;96.50
28835;DHT22;15969;51.536;11.884;2022-10-16T16:32:11;20.70;96.80
28835;DHT22;15969;51.536;11.884;2022-10-16T16:34:36;20.50;97.00
28835;DHT22;15969;51.536;11.884;2022-10-16T16:37:02;20.50;97.30
28835;DHT22;15969;51.536;11.884;2022-10-16T16:39:28;20.30;97.30
28835;DHT22;15969;51.536;11.884;2022-10-16T16:41:56;20.30;97.50
28835;DHT22;15969;51.536;11.884;2022-10-16T16:44:24;20.20;97.50
28835;DHT22;15969;51.536;11.884;2022-10-16T16:46:50;20.00;97.90
28835;DHT22;15969;51.536;11.884;2022-10-16T16:49:17;19.90;97.80
28835;DHT22;15969;51.536;11.884;2022-10-16T16:51:43;19.70;98.30
28835;DHT22;15969;51.536;11.884;2022-10-16T16:54:10;19.60;98.40
28835;DHT22;15969;51.536;11.884;2022-10-16T16:56:38;19.50;99.10
28835;DHT22;15969;51.536;11.884;2022-10-16T16:59:04;19.40;99.30
28835;DHT22;15969;51.536;11.884;2022-10-16T17:01:30;19.30;99.80
28835;DHT22;15969;51.536;11.884;2022-10-16T17:03:57;19.20;99.90
28835;DHT22;15969;51.536;11.884;2022-10-16T17:06:26;19.20;99.90
28835;DHT22;15969;51.536;11.884;2022-10-16T17:08:53;19.10;99.90